Latest Coastal Weather Observations for Montague Island

IDN60701

Issued at 7:41 am EST Tuesday 26 May 2015 (issued every 10 minutes, with the page automatically refreshed every 10 minutes)

About coastal observations | Map of coastal stations | Coastal observations for NSW | Marine services | Other Formats
Station Details ID: 069017 Name: MONTAGUE ISLAND LIGHTHOUSE Lat: -36.25 Lon: 150.23 Height: 52.0 m
Data from the previous 72 hours. | See also: Recent months at Montague Island
Date/Time
EST
Temp

°C
Wind Pressure Rain
since 9am
mm
Weather Cloud Vis
km
Sea
Height
m
Swell
Dir
 
Speed
knots
Gust
knots
hPa Trend Height
m
Period
s
Dir
26/07:30am 12.8 SW 8 12 1029.2 - 0.0 - - - - - - -
26/07:00am 12.3 WSW 8 10 1029.1 - 0.0 - - - - - - -
26/06:30am 12.7 SSW 9 12 1028.8 - 0.0 - - - - - - -
26/06:00am 12.2 SW 8 10 1028.6 - 0.0 - - - - - - -
26/05:30am 12.2 SW 7 10 1028.6 - 0.0 - - - - - - -
26/05:00am 11.9 SW 7 9 1028.6 - 0.0 - - - - - - -
26/04:30am 11.6 WSW 6 7 1028.6 - 0.0 - - - - - - -
26/04:00am 12.1 SW 6 8 1028.8 - 0.0 - - - - - - -
26/03:30am 12.3 SW 6 8 1028.6 - 0.0 - - - - - - -
26/03:00am 12.1 WSW 5 7 1028.8 - 0.0 - - - - - - -
26/02:30am 11.9 WSW 6 8 1028.9 - 0.0 - - - - - - -
26/02:00am 12.2 W 6 9 1029.1 - 0.0 - - - - - - -
26/01:30am 12.7 WSW 7 10 1029.0 - 0.0 - - - - - - -
26/01:00am 13.0 SW 7 9 1029.1 - 0.0 - - - - - - -
26/12:30am 13.4 SSW 9 12 1029.3 - 0.0 - - - - - - -
26/12:00am 13.7 SW 10 13 1029.4 - 0.0 - - - - - - -
 
Date/Time
EST
Temp

°C
Wind Pressure Rain
since 9am
mm
Weather Cloud Vis
km
Sea
Height
m
Swell
Dir
 
Speed
knots
Gust
knots
hPa Trend Height
m
Period
s
Dir
25/11:30pm 13.6 SSW 11 14 1029.4 - 0.0 - - - - - - -
25/11:00pm 13.6 SW 11 13 1029.7 - 0.0 - - - - - - -
25/10:30pm 13.8 SW 14 16 1029.7 - 0.0 - - - - - - -
25/10:00pm 13.6 SW 14 17 1029.7 - 0.0 - - - - - - -
25/09:30pm 13.7 SW 14 17 1029.7 - 0.0 - - - - - - -
25/09:00pm 14.0 SW 14 17 1029.7 - 0.0 - - - - - - -
25/08:30pm 14.1 SW 13 16 1029.5 - 0.0 - - - - - - -
25/08:00pm 14.4 SW 12 14 1029.5 - 0.0 - - - - - - -
25/07:30pm 14.3 SW 12 14 1029.3 - 0.0 - - - - - - -
25/07:00pm 14.3 SW 11 14 1029.0 - 0.0 - - - - - - -
25/06:30pm 14.4 SW 13 15 1028.9 - 0.0 - - - - - - -
25/06:00pm 14.6 SW 12 15 1028.8 - 0.0 - - - - - - -
25/05:30pm 14.6 SSW 10 15 1028.3 - 0.0 - - - - - - -
25/05:00pm 14.8 SSW 10 13 1028.1 - 0.0 - - - - - - -
25/04:30pm 14.9 SSW 11 14 1028.3 - 0.0 - - - - - - -
25/04:00pm 15.3 SSW 11 14 1028.2 - 0.0 - - - - - - -
25/03:30pm 15.6 SSW 10 13 1028.2 - 0.0 - - - - - - -
25/03:00pm 15.7 SSW 13 16 1028.1 - 0.0 - - - - - - -
25/02:30pm 15.2 SSW 12 16 1028.3 - 0.0 - - - - - - -
25/02:00pm 15.4 SSW 13 16 1027.9 - 0.0 - - - - - - -
25/01:30pm 15.1 SSW 14 18 1028.3 - 0.0 - - - - - - -
25/01:00pm 15.0 SSW 14 19 1028.6 - 0.0 - - - - - - -
25/12:30pm 15.3 SSW 13 17 1028.8 - 0.0 - - - - - - -
25/12:00pm 15.4 SSW 10 13 1028.9 - 0.0 - - - - - - -
25/11:30am 15.0 SSW 10 13 1029.3 - 0.0 - - - - - - -
25/11:00am 14.3 SSW 9 12 1030.1 - 0.0 - - - - - - -
25/10:30am 13.8 SSW 9 11 1030.3 - 0.0 - - - - - - -
25/10:00am 14.6 S 4 6 1030.1 - 0.0 - - - - - - -
25/09:30am 14.5 WSW 1 2 1030.1 - 0.0 - - - - - - -
25/09:00am 14.7 WSW 4 5 1030.2 - 0.0 - - - - - - -
25/08:30am 13.7 WNW 4 6 1030.2 - 0.0 - - - - - - -
25/08:00am 13.3 NNW 4 6 1030.3 - 0.0 - - - - - - -
25/07:30am 13.1 N 5 6 1030.1 - 0.0 - - - - - - -
25/07:00am 13.0 NW 3 4 1030.2 - 0.0 - - - - - - -
25/06:30am 12.6 W 4 6 1030.0 - 0.0 - - - - - - -
25/06:00am 12.3 W 5 6 1029.7 - 0.0 - - - - - - -
25/05:30am 12.4 WNW 6 8 1029.7 - 0.0 - - - - - - -
25/05:00am 12.5 NW 6 8 1029.6 - 0.0 - - - - - - -
25/04:30am 12.5 NW 7 9 1029.6 - 0.0 - - - - - - -
25/04:00am 13.0 NNW 6 9 1029.3 - 0.0 - - - - - - -
25/03:30am 13.1 NNW 8 9 1029.5 - 0.0 - - - - - - -
25/03:00am 13.0 NNW 8 10 1030.0 - 0.0 - - - - - - -
25/02:30am 12.7 NW 7 9 1030.4 - 0.0 - - - - - - -
25/02:00am 12.7 NW 7 9 1030.4 - 0.0 - - - - - - -
25/01:30am 12.8 NW 7 10 1030.4 - 0.0 - - - - - - -
25/01:00am 12.8 NW 7 10 1030.5 - 0.0 - - - - - - -
25/12:30am 13.0 NW 6 9 1030.7 - 0.0 - - - - - - -
25/12:00am 13.1 NW 7 9 1030.8 - 0.0 - - - - - - -
 
Date/Time
EST
Temp

°C
Wind Pressure Rain
since 9am
mm
Weather Cloud Vis
km
Sea
Height
m
Swell
Dir
 
Speed
knots
Gust
knots
hPa Trend Height
m
Period
s
Dir
24/11:30pm 13.2 NW 7 9 1031.3 - 0.0 - - - - - - -
24/11:00pm 13.2 NW 7 9 1031.4 - 0.0 - - - - - - -
24/10:30pm 13.4 WNW 6 8 1031.4 - 0.0 - - - - - - -
24/10:00pm 13.6 NW 7 8 1031.3 - 0.0 - - - - - - -
24/09:30pm 13.6 WNW 6 8 1031.5 - 0.0 - - - - - - -
24/09:00pm 13.8 WNW 6 7 1031.6 - 0.0 - - - - - - -
24/08:30pm 14.3 WNW 6 7 1031.4 - 0.0 - - - - - - -
24/08:00pm 14.4 N 6 9 1031.3 - 0.0 - - - - - - -
24/07:30pm 14.9 NNE 6 9 1031.3 - 0.0 - - - - - - -
24/07:00pm 14.4 NNE 5 7 1031.4 - 0.0 - - - - - - -
24/06:30pm 14.3 NNE 4 5 1031.4 - 0.0 - - - - - - -
24/06:00pm 14.5 NE 3 7 1031.2 - 0.0 - - - - - - -
24/05:30pm 14.5 NNE 3 5 1031.1 - 0.0 - - - - - - -
24/05:00pm 14.4 ENE 3 5 1030.8 - 0.0 - - - - - - -
24/04:30pm 14.6 NE 2 4 1030.7 - 0.0 - - - - - - -
24/04:00pm 14.7 NE 3 5 1030.7 - 0.0 - - - - - - -
24/03:30pm 15.3 ENE 2 4 1030.5 - 0.0 - - - - - - -
24/03:00pm 15.7 ENE 3 5 1030.4 - 0.0 - - - - - - -
24/02:30pm 16.0 NE 3 5 1030.5 - 0.0 - - - - - - -
24/02:00pm 16.3 NNE 2 4 1030.4 - 0.0 - - - - - - -
24/01:30pm 16.6 WNW 3 7 1030.6 - 0.0 - - - - - - -
24/01:00pm 16.2 NW 2 6 1030.7 - 0.0 - - - - - - -
24/12:30pm 16.3 WNW 4 8 1030.8 - 0.0 - - - - - - -
24/12:00pm 16.2 WNW 6 9 1031.1 - 0.0 - - - - - - -
24/11:30am 15.8 W 6 8 1031.3 - 0.0 - - - - - - -
24/11:00am 15.1 WNW 9 11 1031.7 - 0.0 - - - - - - -
24/10:30am 14.4 W 9 11 1032.1 - 0.0 - - - - - - -
24/10:00am 13.8 W 9 11 1032.3 - 0.0 - - - - - - -
24/09:30am 12.7 W 8 10 1032.2 - 0.0 - - - - - - -
24/09:00am 12.1 W 9 11 1032.2 - 0.0 - - - - - - -
24/08:30am 11.6 W 9 11 1032.1 - 0.0 - - - - - - -
24/08:00am 11.2 W 8 10 1031.8 - 0.0 - - - - - - -
24/07:30am 10.6 W 10 12 1031.5 - 0.0 - - - - - - -
24/07:00am 11.4 WSW 14 18 1031.2 - 0.0 - - - - - - -
24/06:30am 11.3 SW 14 17 1030.9 - 0.0 - - - - - - -
24/06:00am 11.6 WSW 14 18 1030.6 - 0.0 - - - - - - -
24/05:30am 11.2 SW 16 19 1030.3 - 0.0 - - - - - - -
24/05:00am 11.3 SW 15 20 1030.2 - 0.0 - - - - - - -
24/04:30am 11.3 SW 15 20 1030.2 - 0.0 - - - - - - -
24/04:00am 11.3 SW 15 19 1030.0 - 0.0 - - - - - - -
24/03:30am 11.2 SW 14 18 1030.0 - 0.0 - - - - - - -
24/03:00am 11.2 SSW 14 18 1030.1 - 0.0 - - - - - - -
24/02:30am 11.3 SSW 14 17 1029.9 - 0.0 - - - - - - -
24/02:00am 11.4 SSW 14 17 1029.9 - 0.0 - - - - - - -
24/01:30am 11.6 SW 15 18 1030.0 - 0.0 - - - - - - -
24/01:00am 11.4 SW 15 18 1029.8 - 0.0 - - - - - - -
24/12:30am 11.3 SW 14 18 1030.0 - 0.0 - - - - - - -
24/12:00am 11.4 SW 15 17 1030.1 - 0.0 - - - - - - -
 
Date/Time
EST
Temp

°C
Wind Pressure Rain
since 9am
mm
Weather Cloud Vis
km
Sea
Height
m
Swell
Dir
 
Speed
knots
Gust
knots
hPa Trend Height
m
Period
s
Dir
23/11:30pm 11.8 SW 14 17 1030.0 - 0.0 - - - - - - -
23/11:00pm 12.3 SW 12 14 1029.9 - 0.0 - - - - - - -
23/10:30pm 12.6 SSW 10 12 1030.0 - 0.0 - - - - - - -
23/10:00pm 12.6 SSW 9 11 1030.0 - 0.0 - - - - - - -
23/09:30pm 12.7 SW 9 11 1030.0 - 0.0 - - - - - - -
23/09:00pm 12.9 SW 9 12 1029.9 - 0.0 - - - - - - -
23/08:30pm 13.0 SW 8 10 1029.8 - 0.0 - - - - - - -
23/08:00pm 13.0 WSW 7 9 1029.7 - 0.0 - - - - - - -
23/07:30pm 13.2 WSW 7 9 1029.7 - 0.0 - - - - - - -
23/07:00pm 13.4 SSW 6 9 1029.6 - 0.0 - - - - - - -
23/06:30pm 13.3 SSW 6 9 1029.5 - 0.0 - - - - - - -
23/06:00pm 13.2 SSW 6 9 1029.4 - 0.0 - - - - - - -
23/05:30pm 13.3 S 6 9 1029.3 - 0.0 - - - - - - -
23/05:00pm 13.8 S 6 9 1029.1 - 0.0 - - - - - - -
23/04:30pm 13.6 SSE 7 9 1028.8 - 0.0 - - - - - - -
23/04:00pm 13.9 SE 9 12 1028.8 - 0.0 - - - - - - -
23/03:30pm 13.9 SE 11 15 1028.7 - 0.0 - - - - - - -
23/03:00pm 14.3 SSE 12 17 1028.6 - 0.0 - - - - - - -
23/02:30pm 14.6 S 9 14 1028.4 - 0.0 - - - - - - -
23/02:00pm 14.7 S 11 16 1028.3 - 0.0 - - - - - - -
23/01:30pm 14.5 S 16 21 1028.3 - 0.0 - - - - - - -
23/01:00pm 14.7 S 14 19 1028.6 - 0.0 - - - - - - -
23/12:30pm 14.3 S 19 23 1028.8 - 0.0 - - - - - - -
23/12:00pm 14.3 S 18 25 1029.2 - 0.0 - - - - - - -
23/11:30am 14.5 S 16 23 1029.7 - 0.0 - - - - - - -
23/11:00am 14.4 S 11 15 1030.1 - 0.0 - - - - - - -
23/10:30am 13.6 SSW 12 17 1030.3 - 0.0 - - - - - - -
23/10:00am 14.0 SW 13 16 1030.4 - 0.0 - - - - - - -
23/09:30am 13.4 SW 13 17 1030.2 - 0.0 - - - - - - -
23/09:00am 13.1 SW 13 16 1030.0 - 4.0 - - - - - - -
23/08:30am 12.3 SW 17 20 1029.6 - 4.0 - - - - - - -
23/08:00am 12.0 SW 17 21 1029.5 - 4.0 - - - - - - -

Other Formats:

Comma delimited format used in spreadsheet applications
http://www.bom.gov.au/fwo/IDN60701/IDN60701.94939.axf

JavaScript Object Notation format (JSON) in row-major order
http://www.bom.gov.au/fwo/IDN60701/IDN60701.94939.json